sensor_id;sensor_type;location;lat;lon;timestamp;P1;durP1;ratioP1;P2;durP2;ratioP2
52590;SDS011;38483;42.620;25.394;2022-11-12T00:01:41;6.53;;;4.60;;
52590;SDS011;38483;42.620;25.394;2022-11-12T00:04:26;7.13;;;4.30;;
52590;SDS011;38483;42.620;25.394;2022-11-12T00:07:11;7.20;;;5.13;;
52590;SDS011;38483;42.620;25.394;2022-11-12T00:09:57;6.93;;;4.47;;
52590;SDS011;38483;42.620;25.394;2022-11-12T00:12:42;6.50;;;3.90;;
52590;SDS011;38483;42.620;25.394;2022-11-12T00:15:28;5.60;;;4.17;;
52590;SDS011;38483;42.620;25.394;2022-11-12T00:18:13;8.17;;;4.47;;
52590;SDS011;38483;42.620;25.394;2022-11-12T00:20:58;5.87;;;4.73;;
52590;SDS011;38483;42.620;25.394;2022-11-12T00:23:44;5.27;;;4.00;;
52590;SDS011;38483;42.620;25.394;2022-11-12T00:26:29;6.73;;;4.20;;
52590;SDS011;38483;42.620;25.394;2022-11-12T00:29:14;5.73;;;4.07;;
52590;SDS011;38483;42.620;25.394;2022-11-12T00:31:59;5.67;;;4.37;;
52590;SDS011;38483;42.620;25.394;2022-11-12T00:34:44;6.47;;;4.00;;
52590;SDS011;38483;42.620;25.394;2022-11-12T00:37:30;6.17;;;4.20;;
52590;SDS011;38483;42.620;25.394;2022-11-12T00:40:15;6.47;;;4.17;;
52590;SDS011;38483;42.620;25.394;2022-11-12T00:43:00;8.27;;;5.13;;
52590;SDS011;38483;42.620;25.394;2022-11-12T00:45:45;7.67;;;4.47;;
52590;SDS011;38483;42.620;25.394;2022-11-12T00:48:30;8.33;;;5.37;;
52590;SDS011;38483;42.620;25.394;2022-11-12T00:51:16;8.67;;;5.80;;
52590;SDS011;38483;42.620;25.394;2022-11-12T00:54:01;8.37;;;5.20;;
52590;SDS011;38483;42.620;25.394;2022-11-12T00:56:48;6.50;;;5.03;;
52590;SDS011;38483;42.620;25.394;2022-11-12T00:59:33;6.97;;;5.33;;
52590;SDS011;38483;42.620;25.394;2022-11-12T01:02:18;7.57;;;4.83;;
52590;SDS011;38483;42.620;25.394;2022-11-12T01:05:06;8.57;;;5.60;;
52590;SDS011;38483;42.620;25.394;2022-11-12T01:07:51;6.90;;;5.33;;
52590;SDS011;38483;42.620;25.394;2022-11-12T01:10:40;6.20;;;5.03;;
52590;SDS011;38483;42.620;25.394;2022-11-12T01:13:25;9.87;;;5.33;;
52590;SDS011;38483;42.620;25.394;2022-11-12T01:16:12;8.57;;;4.67;;
52590;SDS011;38483;42.620;25.394;2022-11-12T01:19:04;7.00;;;4.97;;
52590;SDS011;38483;42.620;25.394;2022-11-12T01:21:52;8.47;;;5.20;;
52590;SDS011;38483;42.620;25.394;2022-11-12T01:24:37;7.83;;;4.60;;
52590;SDS011;38483;42.620;25.394;2022-11-12T01:27:23;6.97;;;4.87;;
52590;SDS011;38483;42.620;25.394;2022-11-12T01:30:08;6.67;;;4.97;;
52590;SDS011;38483;42.620;25.394;2022-11-12T01:32:55;8.20;;;5.57;;
52590;SDS011;38483;42.620;25.394;2022-11-12T01:35:40;6.67;;;4.30;;
52590;SDS011;38483;42.620;25.394;2022-11-12T01:38:26;6.73;;;4.57;;
52590;SDS011;38483;42.620;25.394;2022-11-12T01:41:14;6.03;;;4.17;;
52590;SDS011;38483;42.620;25.394;2022-11-12T01:44:21;7.67;;;4.27;;
52590;SDS011;38483;42.620;25.394;2022-11-12T01:50:28;5.07;;;3.77;;
52590;SDS011;38483;42.620;25.394;2022-11-12T01:53:17;5.57;;;4.10;;
52590;SDS011;38483;42.620;25.394;2022-11-12T01:56:05;5.70;;;4.27;;
52590;SDS011;38483;42.620;25.394;2022-11-12T01:58:53;7.33;;;4.80;;
52590;SDS011;38483;42.620;25.394;2022-11-12T02:01:43;7.33;;;4.63;;
52590;SDS011;38483;42.620;25.394;2022-11-12T02:04:28;7.73;;;4.30;;
52590;SDS011;38483;42.620;25.394;2022-11-12T02:07:15;5.73;;;3.67;;
52590;SDS011;38483;42.620;25.394;2022-11-12T02:10:03;4.70;;;3.77;;
52590;SDS011;38483;42.620;25.394;2022-11-12T02:12:50;5.03;;;3.50;;
52590;SDS011;38483;42.620;25.394;2022-11-12T02:15:56;6.60;;;3.60;;
52590;SDS011;38483;42.620;25.394;2022-11-12T02:18:42;4.43;;;2.87;;
52590;SDS011;38483;42.620;25.394;2022-11-12T02:21:28;3.70;;;2.83;;
52590;SDS011;38483;42.620;25.394;2022-11-12T02:26:59;4.17;;;2.97;;
52590;SDS011;38483;42.620;25.394;2022-11-12T02:29:45;3.00;;;2.37;;
52590;SDS011;38483;42.620;25.394;2022-11-12T02:32:31;2.87;;;2.27;;
52590;SDS011;38483;42.620;25.394;2022-11-12T02:35:17;3.20;;;2.30;;
52590;SDS011;38483;42.620;25.394;2022-11-12T02:38:02;4.03;;;2.20;;
52590;SDS011;38483;42.620;25.394;2022-11-12T02:40:48;2.47;;;1.93;;
52590;SDS011;38483;42.620;25.394;2022-11-12T02:43:33;2.93;;;1.90;;
52590;SDS011;38483;42.620;25.394;2022-11-12T02:46:18;3.43;;;2.30;;
52590;SDS011;38483;42.620;25.394;2022-11-12T02:49:04;1.87;;;1.77;;
52590;SDS011;38483;42.620;25.394;2022-11-12T02:51:49;2.77;;;1.73;;
52590;SDS011;38483;42.620;25.394;2022-11-12T02:54:35;3.17;;;2.40;;
52590;SDS011;38483;42.620;25.394;2022-11-12T02:57:20;5.13;;;3.50;;
52590;SDS011;38483;42.620;25.394;2022-11-12T03:00:06;9.33;;;4.20;;
52590;SDS011;38483;42.620;25.394;2022-11-12T03:02:56;10.67;;;4.63;;
52590;SDS011;38483;42.620;25.394;2022-11-12T03:05:45;9.70;;;4.30;;
52590;SDS011;38483;42.620;25.394;2022-11-12T03:08:43;2.03;;;1.60;;
52590;SDS011;38483;42.620;25.394;2022-11-12T03:11:28;2.00;;;1.80;;
52590;SDS011;38483;42.620;25.394;2022-11-12T03:14:13;2.10;;;1.90;;
52590;SDS011;38483;42.620;25.394;2022-11-12T03:16:59;2.27;;;1.90;;
52590;SDS011;38483;42.620;25.394;2022-11-12T03:19:44;3.30;;;2.30;;
52590;SDS011;38483;42.620;25.394;2022-11-12T03:22:29;2.40;;;1.93;;
52590;SDS011;38483;42.620;25.394;2022-11-12T03:25:15;2.87;;;1.60;;
52590;SDS011;38483;42.620;25.394;2022-11-12T03:28:01;2.80;;;2.10;;
52590;SDS011;38483;42.620;25.394;2022-11-12T03:30:55;2.23;;;1.93;;
52590;SDS011;38483;42.620;25.394;2022-11-12T03:33:41;2.17;;;1.80;;
52590;SDS011;38483;42.620;25.394;2022-11-12T03:36:27;2.80;;;2.33;;
52590;SDS011;38483;42.620;25.394;2022-11-12T03:39:12;3.27;;;2.60;;
52590;SDS011;38483;42.620;25.394;2022-11-12T03:41:57;3.27;;;2.50;;
52590;SDS011;38483;42.620;25.394;2022-11-12T03:44:42;4.00;;;3.40;;
52590;SDS011;38483;42.620;25.394;2022-11-12T03:47:29;2.83;;;2.20;;
52590;SDS011;38483;42.620;25.394;2022-11-12T03:50:15;2.43;;;2.20;;
52590;SDS011;38483;42.620;25.394;2022-11-12T03:53:02;3.13;;;2.40;;
52590;SDS011;38483;42.620;25.394;2022-11-12T03:55:48;3.53;;;2.70;;
52590;SDS011;38483;42.620;25.394;2022-11-12T03:58:33;4.27;;;2.97;;
52590;SDS011;38483;42.620;25.394;2022-11-12T04:01:18;3.07;;;2.30;;
52590;SDS011;38483;42.620;25.394;2022-11-12T04:04:04;3.77;;;1.90;;
52590;SDS011;38483;42.620;25.394;2022-11-12T04:06:49;2.07;;;1.80;;
52590;SDS011;38483;42.620;25.394;2022-11-12T04:09:53;3.30;;;2.70;;
52590;SDS011;38483;42.620;25.394;2022-11-12T04:12:38;3.10;;;2.40;;
52590;SDS011;38483;42.620;25.394;2022-11-12T04:15:42;3.93;;;2.20;;
52590;SDS011;38483;42.620;25.394;2022-11-12T04:18:27;2.00;;;1.80;;
52590;SDS011;38483;42.620;25.394;2022-11-12T04:21:32;2.73;;;1.90;;
52590;SDS011;38483;42.620;25.394;2022-11-12T04:24:36;2.90;;;1.93;;
52590;SDS011;38483;42.620;25.394;2022-11-12T04:27:41;2.10;;;1.87;;
52590;SDS011;38483;42.620;25.394;2022-11-12T04:30:26;2.07;;;1.83;;
52590;SDS011;38483;42.620;25.394;2022-11-12T04:33:12;2.50;;;2.20;;
52590;SDS011;38483;42.620;25.394;2022-11-12T04:35:57;2.60;;;2.30;;
52590;SDS011;38483;42.620;25.394;2022-11-12T04:38:42;2.77;;;2.40;;
52590;SDS011;38483;42.620;25.394;2022-11-12T04:41:28;3.50;;;2.80;;
52590;SDS011;38483;42.620;25.394;2022-11-12T04:44:31;3.37;;;2.50;;
52590;SDS011;38483;42.620;25.394;2022-11-12T04:47:37;3.30;;;2.03;;
52590;SDS011;38483;42.620;25.394;2022-11-12T04:50:23;3.93;;;2.77;;
52590;SDS011;38483;42.620;25.394;2022-11-12T04:53:08;4.37;;;2.97;;
52590;SDS011;38483;42.620;25.394;2022-11-12T04:55:55;4.20;;;2.87;;
52590;SDS011;38483;42.620;25.394;2022-11-12T04:58:44;3.07;;;2.73;;
52590;SDS011;38483;42.620;25.394;2022-11-12T05:01:29;4.40;;;2.50;;
52590;SDS011;38483;42.620;25.394;2022-11-12T05:04:15;5.77;;;3.37;;
52590;SDS011;38483;42.620;25.394;2022-11-12T05:07:00;4.73;;;2.90;;
52590;SDS011;38483;42.620;25.394;2022-11-12T05:09:46;3.10;;;2.80;;
52590;SDS011;38483;42.620;25.394;2022-11-12T05:12:31;3.23;;;2.60;;
52590;SDS011;38483;42.620;25.394;2022-11-12T05:15:17;3.33;;;2.57;;
52590;SDS011;38483;42.620;25.394;2022-11-12T05:18:02;4.20;;;3.37;;
52590;SDS011;38483;42.620;25.394;2022-11-12T05:20:48;4.00;;;2.87;;
52590;SDS011;38483;42.620;25.394;2022-11-12T05:23:38;5.60;;;4.00;;
52590;SDS011;38483;42.620;25.394;2022-11-12T05:26:23;5.10;;;3.77;;
52590;SDS011;38483;42.620;25.394;2022-11-12T05:29:08;4.87;;;3.60;;
52590;SDS011;38483;42.620;25.394;2022-11-12T05:31:54;5.27;;;3.57;;
52590;SDS011;38483;42.620;25.394;2022-11-12T05:34:39;4.27;;;3.13;;
52590;SDS011;38483;42.620;25.394;2022-11-12T05:37:25;4.93;;;3.20;;
52590;SDS011;38483;42.620;25.394;2022-11-12T05:40:10;6.03;;;3.47;;
52590;SDS011;38483;42.620;25.394;2022-11-12T05:42:56;4.23;;;2.60;;
52590;SDS011;38483;42.620;25.394;2022-11-12T05:45:42;5.93;;;3.40;;
52590;SDS011;38483;42.620;25.394;2022-11-12T05:48:27;3.93;;;2.90;;
52590;SDS011;38483;42.620;25.394;2022-11-12T05:51:14;4.83;;;2.30;;
52590;SDS011;38483;42.620;25.394;2022-11-12T05:53:59;4.87;;;3.30;;
52590;SDS011;38483;42.620;25.394;2022-11-12T05:56:46;3.70;;;2.77;;
52590;SDS011;38483;42.620;25.394;2022-11-12T05:59:31;3.40;;;2.23;;
52590;SDS011;38483;42.620;25.394;2022-11-12T06:02:16;4.80;;;3.07;;
52590;SDS011;38483;42.620;25.394;2022-11-12T06:05:02;3.60;;;2.30;;
52590;SDS011;38483;42.620;25.394;2022-11-12T06:07:48;3.03;;;2.53;;
52590;SDS011;38483;42.620;25.394;2022-11-12T06:10:33;4.17;;;3.60;;
52590;SDS011;38483;42.620;25.394;2022-11-12T06:13:19;3.40;;;2.70;;
52590;SDS011;38483;42.620;25.394;2022-11-12T06:16:06;4.30;;;3.30;;
52590;SDS011;38483;42.620;25.394;2022-11-12T06:18:52;5.33;;;2.37;;
52590;SDS011;38483;42.620;25.394;2022-11-12T06:21:37;2.67;;;2.27;;
52590;SDS011;38483;42.620;25.394;2022-11-12T06:24:23;3.13;;;2.67;;
52590;SDS011;38483;42.620;25.394;2022-11-12T06:27:08;3.37;;;2.60;;
52590;SDS011;38483;42.620;25.394;2022-11-12T06:29:54;3.87;;;2.30;;
52590;SDS011;38483;42.620;25.394;2022-11-12T06:32:39;3.23;;;2.37;;
52590;SDS011;38483;42.620;25.394;2022-11-12T06:35:25;3.03;;;2.30;;
52590;SDS011;38483;42.620;25.394;2022-11-12T06:38:11;3.10;;;2.60;;
52590;SDS011;38483;42.620;25.394;2022-11-12T06:40:56;3.50;;;2.70;;
52590;SDS011;38483;42.620;25.394;2022-11-12T06:43:41;3.43;;;2.73;;
52590;SDS011;38483;42.620;25.394;2022-11-12T06:46:27;2.93;;;2.30;;
52590;SDS011;38483;42.620;25.394;2022-11-12T06:49:12;7.47;;;4.83;;
52590;SDS011;38483;42.620;25.394;2022-11-12T06:51:57;3.50;;;2.53;;
52590;SDS011;38483;42.620;25.394;2022-11-12T06:54:43;3.93;;;3.07;;
52590;SDS011;38483;42.620;25.394;2022-11-12T06:57:29;8.93;;;4.80;;
52590;SDS011;38483;42.620;25.394;2022-11-12T07:00:15;2.73;;;2.30;;
52590;SDS011;38483;42.620;25.394;2022-11-12T07:03:05;4.53;;;2.43;;
52590;SDS011;38483;42.620;25.394;2022-11-12T07:05:52;3.67;;;2.73;;
52590;SDS011;38483;42.620;25.394;2022-11-12T07:08:37;6.83;;;4.40;;
52590;SDS011;38483;42.620;25.394;2022-11-12T07:11:23;9.40;;;4.27;;
52590;SDS011;38483;42.620;25.394;2022-11-12T07:14:08;5.43;;;3.87;;
52590;SDS011;38483;42.620;25.394;2022-11-12T07:16:54;7.10;;;3.67;;
52590;SDS011;38483;42.620;25.394;2022-11-12T07:19:39;8.13;;;4.27;;
52590;SDS011;38483;42.620;25.394;2022-11-12T07:22:24;6.87;;;3.67;;
52590;SDS011;38483;42.620;25.394;2022-11-12T07:25:10;5.57;;;2.73;;
52590;SDS011;38483;42.620;25.394;2022-11-12T07:27:55;3.40;;;2.73;;
52590;SDS011;38483;42.620;25.394;2022-11-12T07:30:40;4.13;;;3.50;;
52590;SDS011;38483;42.620;25.394;2022-11-12T07:33:26;14.10;;;8.93;;
52590;SDS011;38483;42.620;25.394;2022-11-12T07:36:13;4.77;;;3.67;;
52590;SDS011;38483;42.620;25.394;2022-11-12T07:39:00;5.23;;;3.57;;
52590;SDS011;38483;42.620;25.394;2022-11-12T07:41:45;6.60;;;3.63;;
52590;SDS011;38483;42.620;25.394;2022-11-12T07:44:31;7.70;;;4.10;;
52590;SDS011;38483;42.620;25.394;2022-11-12T07:47:16;6.00;;;3.97;;
52590;SDS011;38483;42.620;25.394;2022-11-12T07:50:02;4.47;;;2.70;;
52590;SDS011;38483;42.620;25.394;2022-11-12T07:52:48;6.77;;;3.43;;
52590;SDS011;38483;42.620;25.394;2022-11-12T07:55:33;5.80;;;3.57;;
52590;SDS011;38483;42.620;25.394;2022-11-12T07:58:18;9.93;;;5.37;;
52590;SDS011;38483;42.620;25.394;2022-11-12T08:04:04;12.03;;;7.23;;
52590;SDS011;38483;42.620;25.394;2022-11-12T08:06:50;12.40;;;7.77;;
52590;SDS011;38483;42.620;25.394;2022-11-12T08:09:36;10.90;;;7.23;;
52590;SDS011;38483;42.620;25.394;2022-11-12T08:12:21;12.20;;;8.73;;
52590;SDS011;38483;42.620;25.394;2022-11-12T08:15:07;11.77;;;7.97;;
52590;SDS011;38483;42.620;25.394;2022-11-12T08:17:53;14.00;;;9.00;;
52590;SDS011;38483;42.620;25.394;2022-11-12T08:20:38;13.30;;;7.17;;
52590;SDS011;38483;42.620;25.394;2022-11-12T08:23:23;9.60;;;7.43;;
52590;SDS011;38483;42.620;25.394;2022-11-12T08:26:10;8.93;;;7.00;;
52590;SDS011;38483;42.620;25.394;2022-11-12T08:28:57;13.40;;;7.37;;
52590;SDS011;38483;42.620;25.394;2022-11-12T08:31:46;13.33;;;7.80;;
52590;SDS011;38483;42.620;25.394;2022-11-12T08:34:31;14.00;;;8.30;;
52590;SDS011;38483;42.620;25.394;2022-11-12T08:37:17;12.67;;;8.00;;
52590;SDS011;38483;42.620;25.394;2022-11-12T08:40:02;12.30;;;7.90;;
52590;SDS011;38483;42.620;25.394;2022-11-12T08:42:48;17.03;;;9.17;;
52590;SDS011;38483;42.620;25.394;2022-11-12T08:45:40;13.30;;;9.07;;
52590;SDS011;38483;42.620;25.394;2022-11-12T08:48:27;15.83;;;7.63;;
52590;SDS011;38483;42.620;25.394;2022-11-12T08:51:13;11.30;;;8.37;;
52590;SDS011;38483;42.620;25.394;2022-11-12T08:53:59;10.97;;;7.50;;
52590;SDS011;38483;42.620;25.394;2022-11-12T08:56:44;10.27;;;8.13;;
52590;SDS011;38483;42.620;25.394;2022-11-12T08:59:30;15.83;;;8.40;;
52590;SDS011;38483;42.620;25.394;2022-11-12T09:02:15;9.67;;;6.63;;
52590;SDS011;38483;42.620;25.394;2022-11-12T09:05:00;10.77;;;7.07;;
52590;SDS011;38483;42.620;25.394;2022-11-12T09:07:46;13.23;;;7.53;;
52590;SDS011;38483;42.620;25.394;2022-11-12T09:10:35;11.50;;;7.67;;
52590;SDS011;38483;42.620;25.394;2022-11-12T09:13:21;7.93;;;5.87;;
52590;SDS011;38483;42.620;25.394;2022-11-12T09:16:07;11.47;;;8.80;;
52590;SDS011;38483;42.620;25.394;2022-11-12T09:18:53;15.13;;;10.07;;
52590;SDS011;38483;42.620;25.394;2022-11-12T09:21:38;13.43;;;9.27;;
52590;SDS011;38483;42.620;25.394;2022-11-12T09:24:24;12.53;;;8.00;;
52590;SDS011;38483;42.620;25.394;2022-11-12T09:27:09;11.30;;;7.30;;
52590;SDS011;38483;42.620;25.394;2022-11-12T09:29:54;12.37;;;7.27;;
52590;SDS011;38483;42.620;25.394;2022-11-12T09:32:40;10.77;;;6.60;;
52590;SDS011;38483;42.620;25.394;2022-11-12T09:36:06;13.20;;;7.00;;
52590;SDS011;38483;42.620;25.394;2022-11-12T09:38:52;11.43;;;8.63;;
52590;SDS011;38483;42.620;25.394;2022-11-12T09:41:38;14.00;;;7.93;;
52590;SDS011;38483;42.620;25.394;2022-11-12T09:44:25;10.10;;;6.53;;
52590;SDS011;38483;42.620;25.394;2022-11-12T09:53:17;9.73;;;7.60;;
52590;SDS011;38483;42.620;25.394;2022-11-12T09:56:08;12.27;;;9.10;;
52590;SDS011;38483;42.620;25.394;2022-11-12T09:58:56;17.00;;;10.33;;
52590;SDS011;38483;42.620;25.394;2022-11-12T10:01:46;14.40;;;9.37;;
52590;SDS011;38483;42.620;25.394;2022-11-12T10:04:52;11.50;;;7.87;;
52590;SDS011;38483;42.620;25.394;2022-11-12T10:16:40;16.80;;;12.10;;
52590;SDS011;38483;42.620;25.394;2022-11-12T10:22:34;16.17;;;10.80;;
52590;SDS011;38483;42.620;25.394;2022-11-12T10:25:37;14.23;;;10.47;;
52590;SDS011;38483;42.620;25.394;2022-11-12T10:28:28;15.83;;;9.30;;
52590;SDS011;38483;42.620;25.394;2022-11-12T10:31:25;15.37;;;10.30;;
52590;SDS011;38483;42.620;25.394;2022-11-12T10:34:21;15.83;;;10.33;;
52590;SDS011;38483;42.620;25.394;2022-11-12T10:43:21;12.17;;;8.43;;
52590;SDS011;38483;42.620;25.394;2022-11-12T10:46:50;10.37;;;7.53;;
52590;SDS011;38483;42.620;25.394;2022-11-12T10:52:01;10.53;;;8.00;;
52590;SDS011;38483;42.620;25.394;2022-11-12T10:54:46;11.47;;;7.83;;
52590;SDS011;38483;42.620;25.394;2022-11-12T10:57:38;12.53;;;7.33;;
52590;SDS011;38483;42.620;25.394;2022-11-12T11:00:24;12.30;;;7.50;;
52590;SDS011;38483;42.620;25.394;2022-11-12T11:03:20;11.43;;;7.13;;
52590;SDS011;38483;42.620;25.394;2022-11-12T11:06:25;9.87;;;7.03;;
52590;SDS011;38483;42.620;25.394;2022-11-12T11:11:56;11.37;;;7.97;;
52590;SDS011;38483;42.620;25.394;2022-11-12T11:14:42;12.53;;;7.97;;
52590;SDS011;38483;42.620;25.394;2022-11-12T11:17:29;8.90;;;7.37;;
52590;SDS011;38483;42.620;25.394;2022-11-12T11:26:15;9.80;;;5.83;;
52590;SDS011;38483;42.620;25.394;2022-11-12T11:29:23;9.60;;;6.50;;
52590;SDS011;38483;42.620;25.394;2022-11-12T11:35:17;11.10;;;6.87;;
52590;SDS011;38483;42.620;25.394;2022-11-12T11:38:23;10.37;;;7.23;;
52590;SDS011;38483;42.620;25.394;2022-11-12T11:47:23;11.00;;;8.40;;
52590;SDS011;38483;42.620;25.394;2022-11-12T11:50:32;11.87;;;7.93;;
52590;SDS011;38483;42.620;25.394;2022-11-12T11:53:24;11.43;;;7.87;;
52590;SDS011;38483;42.620;25.394;2022-11-12T11:56:18;12.27;;;8.80;;
52590;SDS011;38483;42.620;25.394;2022-11-12T12:05:41;11.13;;;8.20;;
52590;SDS011;38483;42.620;25.394;2022-11-12T12:17:25;12.20;;;9.60;;
52590;SDS011;38483;42.620;25.394;2022-11-12T12:20:20;13.20;;;9.57;;
52590;SDS011;38483;42.620;25.394;2022-11-12T12:23:35;12.93;;;9.63;;
52590;SDS011;38483;42.620;25.394;2022-11-12T12:26:29;17.10;;;9.60;;
52590;SDS011;38483;42.620;25.394;2022-11-12T12:38:10;10.00;;;6.33;;
52590;SDS011;38483;42.620;25.394;2022-11-12T12:44:14;10.83;;;7.43;;
52590;SDS011;38483;42.620;25.394;2022-11-12T12:47:00;15.57;;;8.93;;
52590;SDS011;38483;42.620;25.394;2022-11-12T12:49:46;12.23;;;8.70;;
52590;SDS011;38483;42.620;25.394;2022-11-12T12:55:48;11.43;;;6.90;;
52590;SDS011;38483;42.620;25.394;2022-11-12T12:58:47;10.23;;;7.70;;
52590;SDS011;38483;42.620;25.394;2022-11-12T13:01:34;11.43;;;7.40;;
52590;SDS011;38483;42.620;25.394;2022-11-12T13:07:43;11.10;;;7.80;;
52590;SDS011;38483;42.620;25.394;2022-11-12T13:13:30;13.70;;;9.17;;
52590;SDS011;38483;42.620;25.394;2022-11-12T13:28:10;13.00;;;9.33;;
52590;SDS011;38483;42.620;25.394;2022-11-12T13:30:56;14.60;;;9.73;;
52590;SDS011;38483;42.620;25.394;2022-11-12T13:33:43;14.10;;;9.43;;
52590;SDS011;38483;42.620;25.394;2022-11-12T13:36:28;14.83;;;10.50;;
52590;SDS011;38483;42.620;25.394;2022-11-12T13:39:15;13.80;;;9.13;;
52590;SDS011;38483;42.620;25.394;2022-11-12T13:46:30;14.10;;;9.77;;
52590;SDS011;38483;42.620;25.394;2022-11-12T13:50:12;12.60;;;9.57;;
52590;SDS011;38483;42.620;25.394;2022-11-12T13:53:49;10.97;;;8.07;;
52590;SDS011;38483;42.620;25.394;2022-11-12T13:57:27;13.73;;;9.20;;
52590;SDS011;38483;42.620;25.394;2022-11-12T14:03:05;13.63;;;10.47;;
52590;SDS011;38483;42.620;25.394;2022-11-12T14:05:52;20.80;;;13.40;;
52590;SDS011;38483;42.620;25.394;2022-11-12T14:23:20;12.03;;;8.90;;
52590;SDS011;38483;42.620;25.394;2022-11-12T14:26:09;14.07;;;9.10;;
52590;SDS011;38483;42.620;25.394;2022-11-12T14:28:56;16.40;;;10.80;;
52590;SDS011;38483;42.620;25.394;2022-11-12T14:31:41;12.00;;;9.20;;
52590;SDS011;38483;42.620;25.394;2022-11-12T14:34:28;11.17;;;8.27;;
52590;SDS011;38483;42.620;25.394;2022-11-12T14:37:29;12.30;;;8.47;;
52590;SDS011;38483;42.620;25.394;2022-11-12T14:40:27;14.27;;;8.50;;
52590;SDS011;38483;42.620;25.394;2022-11-12T14:43:47;12.80;;;9.23;;
52590;SDS011;38483;42.620;25.394;2022-11-12T14:46:34;14.10;;;9.73;;
52590;SDS011;38483;42.620;25.394;2022-11-12T14:52:26;12.77;;;9.50;;
52590;SDS011;38483;42.620;25.394;2022-11-12T14:55:16;13.63;;;9.80;;
52590;SDS011;38483;42.620;25.394;2022-11-12T14:58:04;16.37;;;11.37;;
52590;SDS011;38483;42.620;25.394;2022-11-12T15:00:51;15.80;;;11.83;;
52590;SDS011;38483;42.620;25.394;2022-11-12T15:03:38;19.23;;;15.43;;
52590;SDS011;38483;42.620;25.394;2022-11-12T15:06:28;21.37;;;14.80;;
52590;SDS011;38483;42.620;25.394;2022-11-12T15:09:17;19.93;;;14.93;;
52590;SDS011;38483;42.620;25.394;2022-11-12T15:12:19;17.87;;;12.97;;
52590;SDS011;38483;42.620;25.394;2022-11-12T15:15:24;20.37;;;13.93;;
52590;SDS011;38483;42.620;25.394;2022-11-12T15:18:14;21.90;;;14.07;;
52590;SDS011;38483;42.620;25.394;2022-11-12T15:21:05;20.30;;;14.13;;
52590;SDS011;38483;42.620;25.394;2022-11-12T15:30:28;15.87;;;11.17;;
52590;SDS011;38483;42.620;25.394;2022-11-12T15:33:16;13.70;;;9.93;;
52590;SDS011;38483;42.620;25.394;2022-11-12T15:36:11;15.80;;;11.20;;
52590;SDS011;38483;42.620;25.394;2022-11-12T15:39:01;12.67;;;10.07;;
52590;SDS011;38483;42.620;25.394;2022-11-12T15:41:54;14.20;;;9.93;;
52590;SDS011;38483;42.620;25.394;2022-11-12T15:44:48;15.20;;;10.70;;
52590;SDS011;38483;42.620;25.394;2022-11-12T15:47:34;14.10;;;9.80;;
52590;SDS011;38483;42.620;25.394;2022-11-12T15:50:21;17.13;;;11.00;;
52590;SDS011;38483;42.620;25.394;2022-11-12T15:53:08;19.23;;;12.50;;
52590;SDS011;38483;42.620;25.394;2022-11-12T15:55:53;21.57;;;13.00;;
52590;SDS011;38483;42.620;25.394;2022-11-12T15:58:38;17.63;;;12.23;;
52590;SDS011;38483;42.620;25.394;2022-11-12T16:01:24;17.10;;;11.53;;
52590;SDS011;38483;42.620;25.394;2022-11-12T16:04:10;22.00;;;14.87;;
52590;SDS011;38483;42.620;25.394;2022-11-12T16:06:58;23.70;;;14.83;;
52590;SDS011;38483;42.620;25.394;2022-11-12T16:09:43;22.43;;;14.63;;
52590;SDS011;38483;42.620;25.394;2022-11-12T16:12:29;22.13;;;14.60;;
52590;SDS011;38483;42.620;25.394;2022-11-12T16:15:15;26.43;;;18.90;;
52590;SDS011;38483;42.620;25.394;2022-11-12T16:18:02;26.20;;;18.97;;
52590;SDS011;38483;42.620;25.394;2022-11-12T16:20:47;29.67;;;18.37;;
52590;SDS011;38483;42.620;25.394;2022-11-12T16:23:33;25.60;;;17.37;;
52590;SDS011;38483;42.620;25.394;2022-11-12T16:26:22;24.93;;;17.57;;
52590;SDS011;38483;42.620;25.394;2022-11-12T16:29:12;30.37;;;18.40;;
52590;SDS011;38483;42.620;25.394;2022-11-12T16:31:58;30.40;;;21.00;;
52590;SDS011;38483;42.620;25.394;2022-11-12T16:34:43;31.30;;;19.83;;
52590;SDS011;38483;42.620;25.394;2022-11-12T16:37:29;118.73;;;48.07;;
52590;SDS011;38483;42.620;25.394;2022-11-12T16:40:16;48.83;;;29.57;;
52590;SDS011;38483;42.620;25.394;2022-11-12T16:43:03;43.27;;;28.60;;
52590;SDS011;38483;42.620;25.394;2022-11-12T16:45:49;48.40;;;30.20;;
52590;SDS011;38483;42.620;25.394;2022-11-12T16:48:34;43.57;;;29.13;;
52590;SDS011;38483;42.620;25.394;2022-11-12T16:51:20;45.43;;;28.40;;
52590;SDS011;38483;42.620;25.394;2022-11-12T16:54:06;46.83;;;29.10;;
52590;SDS011;38483;42.620;25.394;2022-11-12T16:56:52;55.50;;;33.37;;
52590;SDS011;38483;42.620;25.394;2022-11-12T16:59:37;59.07;;;34.60;;
52590;SDS011;38483;42.620;25.394;2022-11-12T17:02:22;49.23;;;30.83;;
52590;SDS011;38483;42.620;25.394;2022-11-12T17:05:26;58.23;;;36.07;;
52590;SDS011;38483;42.620;25.394;2022-11-12T17:08:15;60.77;;;35.93;;
52590;SDS011;38483;42.620;25.394;2022-11-12T17:11:04;56.87;;;33.83;;
52590;SDS011;38483;42.620;25.394;2022-11-12T17:13:51;49.47;;;32.40;;
52590;SDS011;38483;42.620;25.394;2022-11-12T17:16:36;53.77;;;34.73;;
52590;SDS011;38483;42.620;25.394;2022-11-12T17:19:21;55.50;;;33.90;;
52590;SDS011;38483;42.620;25.394;2022-11-12T17:22:07;54.97;;;32.63;;
52590;SDS011;38483;42.620;25.394;2022-11-12T17:24:52;44.30;;;28.80;;
52590;SDS011;38483;42.620;25.394;2022-11-12T17:27:37;43.77;;;25.97;;
52590;SDS011;38483;42.620;25.394;2022-11-12T17:30:23;33.73;;;21.47;;
52590;SDS011;38483;42.620;25.394;2022-11-12T17:33:08;28.53;;;18.47;;
52590;SDS011;38483;42.620;25.394;2022-11-12T17:35:53;21.63;;;15.00;;
52590;SDS011;38483;42.620;25.394;2022-11-12T17:38:39;24.27;;;16.77;;
52590;SDS011;38483;42.620;25.394;2022-11-12T17:41:25;22.23;;;15.93;;
52590;SDS011;38483;42.620;25.394;2022-11-12T17:44:17;16.87;;;12.17;;
52590;SDS011;38483;42.620;25.394;2022-11-12T17:47:03;14.93;;;10.57;;
52590;SDS011;38483;42.620;25.394;2022-11-12T17:49:49;15.57;;;9.93;;
52590;SDS011;38483;42.620;25.394;2022-11-12T17:52:35;15.63;;;9.67;;
52590;SDS011;38483;42.620;25.394;2022-11-12T17:55:20;14.23;;;10.03;;
52590;SDS011;38483;42.620;25.394;2022-11-12T17:58:05;14.90;;;9.77;;
52590;SDS011;38483;42.620;25.394;2022-11-12T18:00:51;16.83;;;10.57;;
52590;SDS011;38483;42.620;25.394;2022-11-12T18:03:38;18.50;;;11.13;;
52590;SDS011;38483;42.620;25.394;2022-11-12T18:06:29;16.23;;;10.73;;
52590;SDS011;38483;42.620;25.394;2022-11-12T18:09:16;16.07;;;10.97;;
52590;SDS011;38483;42.620;25.394;2022-11-12T18:12:01;14.53;;;9.93;;
52590;SDS011;38483;42.620;25.394;2022-11-12T18:14:47;12.10;;;8.50;;
52590;SDS011;38483;42.620;25.394;2022-11-12T18:17:52;18.67;;;11.93;;
52590;SDS011;38483;42.620;25.394;2022-11-12T18:20:37;16.20;;;10.77;;
52590;SDS011;38483;42.620;25.394;2022-11-12T18:23:23;13.20;;;10.10;;
52590;SDS011;38483;42.620;25.394;2022-11-12T18:26:11;14.87;;;9.70;;
52590;SDS011;38483;42.620;25.394;2022-11-12T18:28:59;13.17;;;9.47;;
52590;SDS011;38483;42.620;25.394;2022-11-12T18:31:44;14.40;;;9.67;;
52590;SDS011;38483;42.620;25.394;2022-11-12T18:34:31;13.27;;;10.20;;
52590;SDS011;38483;42.620;25.394;2022-11-12T18:37:17;15.07;;;10.73;;
52590;SDS011;38483;42.620;25.394;2022-11-12T18:40:02;14.30;;;9.90;;
52590;SDS011;38483;42.620;25.394;2022-11-12T18:42:48;15.53;;;10.43;;
52590;SDS011;38483;42.620;25.394;2022-11-12T18:45:33;14.40;;;10.23;;